Terminal Aerodrome Forecast
Issued by NWS

Home | Current Version | Previous Version | Text Only | Print | Product List | Glossary On
Versions: 1 2 3 4 5 6 7 8 9 10 11 12 13 14 15 16
000
FTUS45 KPSR 212200 AAB
TAFIPL
TAF AMD
KIPL 212224Z 2122/2218 13012KT 6SM RA VCTS BKN080CB
     FM220000 23010KT P6SM VCSH BKN080
     FM220200 26007KT P6SM FEW100 SCT200
     FM221700 VRB06KT P6SM FEW200=

USA.gov is the U.S. government's official web portal to all federal, state and local government web resources and services.